sensor_id;sensor_type;location;lat;lon;timestamp;P1;durP1;ratioP1;P2;durP2;ratioP2
12224;SDS011;6175;50.956;11.064;2023-08-17T00:00:20;2.90;;;1.65;;
12224;SDS011;6175;50.956;11.064;2023-08-17T00:02:47;4.25;;;1.95;;
12224;SDS011;6175;50.956;11.064;2023-08-17T00:05:14;3.28;;;1.50;;
12224;SDS011;6175;50.956;11.064;2023-08-17T00:07:41;2.30;;;1.55;;
12224;SDS011;6175;50.956;11.064;2023-08-17T00:10:10;3.03;;;1.63;;
12224;SDS011;6175;50.956;11.064;2023-08-17T00:12:37;2.28;;;1.20;;
12224;SDS011;6175;50.956;11.064;2023-08-17T00:15:04;1.30;;;1.20;;
12224;SDS011;6175;50.956;11.064;2023-08-17T00:17:32;2.67;;;1.33;;
12224;SDS011;6175;50.956;11.064;2023-08-17T00:19:59;3.05;;;1.65;;
12224;SDS011;6175;50.956;11.064;2023-08-17T00:22:26;2.45;;;1.45;;
12224;SDS011;6175;50.956;11.064;2023-08-17T00:24:53;1.40;;;1.30;;
12224;SDS011;6175;50.956;11.064;2023-08-17T00:27:21;1.45;;;1.20;;
12224;SDS011;6175;50.956;11.064;2023-08-17T00:29:48;2.50;;;1.67;;
12224;SDS011;6175;50.956;11.064;2023-08-17T00:32:15;4.28;;;1.70;;
12224;SDS011;6175;50.956;11.064;2023-08-17T00:34:42;1.63;;;1.38;;
12224;SDS011;6175;50.956;11.064;2023-08-17T00:37:09;2.95;;;1.50;;
12224;SDS011;6175;50.956;11.064;2023-08-17T00:39:36;4.18;;;1.92;;
12224;SDS011;6175;50.956;11.064;2023-08-17T00:42:03;2.42;;;1.70;;
12224;SDS011;6175;50.956;11.064;2023-08-17T00:44:34;3.80;;;1.88;;
12224;SDS011;6175;50.956;11.064;2023-08-17T00:47:01;3.80;;;1.75;;
12224;SDS011;6175;50.956;11.064;2023-08-17T00:49:30;1.98;;;1.77;;
12224;SDS011;6175;50.956;11.064;2023-08-17T00:51:57;2.65;;;1.48;;
12224;SDS011;6175;50.956;11.064;2023-08-17T00:54:24;2.10;;;1.48;;
12224;SDS011;6175;50.956;11.064;2023-08-17T00:56:52;2.08;;;1.20;;
12224;SDS011;6175;50.956;11.064;2023-08-17T00:59:19;1.73;;;1.40;;
12224;SDS011;6175;50.956;11.064;2023-08-17T01:01:48;1.70;;;1.20;;
12224;SDS011;6175;50.956;11.064;2023-08-17T01:04:15;1.65;;;1.30;;
12224;SDS011;6175;50.956;11.064;2023-08-17T01:06:42;2.15;;;1.58;;
12224;SDS011;6175;50.956;11.064;2023-08-17T01:09:09;1.73;;;1.48;;
12224;SDS011;6175;50.956;11.064;2023-08-17T01:11:37;2.13;;;1.40;;
12224;SDS011;6175;50.956;11.064;2023-08-17T01:14:12;1.73;;;1.30;;
12224;SDS011;6175;50.956;11.064;2023-08-17T01:16:50;1.42;;;1.20;;
12224;SDS011;6175;50.956;11.064;2023-08-17T01:19:28;1.88;;;1.30;;
12224;SDS011;6175;50.956;11.064;2023-08-17T01:21:57;1.92;;;1.20;;
12224;SDS011;6175;50.956;11.064;2023-08-17T01:24:25;1.60;;;1.50;;
12224;SDS011;6175;50.956;11.064;2023-08-17T01:26:52;1.88;;;1.15;;
12224;SDS011;6175;50.956;11.064;2023-08-17T01:29:19;1.50;;;1.40;;
12224;SDS011;6175;50.956;11.064;2023-08-17T01:31:47;1.45;;;1.30;;
12224;SDS011;6175;50.956;11.064;2023-08-17T01:34:19;1.25;;;1.15;;
12224;SDS011;6175;50.956;11.064;2023-08-17T01:36:50;1.85;;;1.48;;
12224;SDS011;6175;50.956;11.064;2023-08-17T01:39:19;2.80;;;1.42;;
12224;SDS011;6175;50.956;11.064;2023-08-17T01:41:53;1.77;;;1.55;;
12224;SDS011;6175;50.956;11.064;2023-08-17T01:44:23;2.03;;;1.33;;
12224;SDS011;6175;50.956;11.064;2023-08-17T01:46:51;1.98;;;1.67;;
12224;SDS011;6175;50.956;11.064;2023-08-17T01:49:18;2.45;;;1.48;;
12224;SDS011;6175;50.956;11.064;2023-08-17T01:51:45;2.42;;;1.75;;
12224;SDS011;6175;50.956;11.064;2023-08-17T01:54:12;2.10;;;1.90;;
12224;SDS011;6175;50.956;11.064;2023-08-17T01:56:39;3.30;;;1.73;;
12224;SDS011;6175;50.956;11.064;2023-08-17T01:59:08;1.80;;;1.70;;
12224;SDS011;6175;50.956;11.064;2023-08-17T02:01:35;2.53;;;1.70;;
12224;SDS011;6175;50.956;11.064;2023-08-17T02:04:03;1.50;;;1.40;;
12224;SDS011;6175;50.956;11.064;2023-08-17T02:06:30;1.98;;;1.40;;
12224;SDS011;6175;50.956;11.064;2023-08-17T02:08:57;3.40;;;2.17;;
12224;SDS011;6175;50.956;11.064;2023-08-17T02:11:24;2.38;;;2.17;;
12224;SDS011;6175;50.956;11.064;2023-08-17T02:13:52;2.35;;;2.15;;
12224;SDS011;6175;50.956;11.064;2023-08-17T02:16:20;2.67;;;1.98;;
12224;SDS011;6175;50.956;11.064;2023-08-17T02:18:47;1.83;;;1.30;;
12224;SDS011;6175;50.956;11.064;2023-08-17T02:21:14;2.20;;;1.63;;
12224;SDS011;6175;50.956;11.064;2023-08-17T02:23:41;2.13;;;1.50;;
12224;SDS011;6175;50.956;11.064;2023-08-17T02:26:09;2.88;;;1.77;;
12224;SDS011;6175;50.956;11.064;2023-08-17T02:28:36;1.35;;;1.25;;
12224;SDS011;6175;50.956;11.064;2023-08-17T02:31:03;1.30;;;1.20;;
12224;SDS011;6175;50.956;11.064;2023-08-17T02:33:32;1.10;;;0.90;;
12224;SDS011;6175;50.956;11.064;2023-08-17T02:36:02;1.30;;;1.20;;
12224;SDS011;6175;50.956;11.064;2023-08-17T02:38:29;1.30;;;1.20;;
12224;SDS011;6175;50.956;11.064;2023-08-17T02:40:56;2.05;;;1.17;;
12224;SDS011;6175;50.956;11.064;2023-08-17T02:43:22;1.30;;;1.05;;
12224;SDS011;6175;50.956;11.064;2023-08-17T02:45:50;1.23;;;1.15;;
12224;SDS011;6175;50.956;11.064;2023-08-17T02:48:17;1.50;;;0.88;;
12224;SDS011;6175;50.956;11.064;2023-08-17T02:50:45;0.88;;;0.88;;
12224;SDS011;6175;50.956;11.064;2023-08-17T02:53:12;1.20;;;0.98;;
12224;SDS011;6175;50.956;11.064;2023-08-17T02:55:39;1.17;;;1.00;;
12224;SDS011;6175;50.956;11.064;2023-08-17T02:58:06;1.48;;;1.17;;
12224;SDS011;6175;50.956;11.064;2023-08-17T03:00:34;1.75;;;1.10;;
12224;SDS011;6175;50.956;11.064;2023-08-17T03:03:01;0.80;;;0.80;;
12224;SDS011;6175;50.956;11.064;2023-08-17T03:05:28;1.05;;;1.02;;
12224;SDS011;6175;50.956;11.064;2023-08-17T03:07:56;1.13;;;1.00;;
12224;SDS011;6175;50.956;11.064;2023-08-17T03:10:23;1.50;;;1.13;;
12224;SDS011;6175;50.956;11.064;2023-08-17T03:12:50;1.33;;;1.20;;
12224;SDS011;6175;50.956;11.064;2023-08-17T03:15:18;1.70;;;1.42;;
12224;SDS011;6175;50.956;11.064;2023-08-17T03:17:45;1.40;;;1.30;;
12224;SDS011;6175;50.956;11.064;2023-08-17T03:20:12;1.30;;;1.20;;
12224;SDS011;6175;50.956;11.064;2023-08-17T03:22:39;1.30;;;1.20;;
12224;SDS011;6175;50.956;11.064;2023-08-17T03:25:08;1.52;;;1.42;;
12224;SDS011;6175;50.956;11.064;2023-08-17T03:27:35;1.15;;;1.08;;
12224;SDS011;6175;50.956;11.064;2023-08-17T03:30:02;1.33;;;1.23;;
12224;SDS011;6175;50.956;11.064;2023-08-17T03:32:29;1.00;;;1.00;;
12224;SDS011;6175;50.956;11.064;2023-08-17T03:34:57;1.38;;;1.27;;
12224;SDS011;6175;50.956;11.064;2023-08-17T03:37:24;1.50;;;1.17;;
12224;SDS011;6175;50.956;11.064;2023-08-17T03:39:51;2.03;;;1.45;;
12224;SDS011;6175;50.956;11.064;2023-08-17T03:42:19;1.67;;;1.50;;
12224;SDS011;6175;50.956;11.064;2023-08-17T03:44:46;0.90;;;0.90;;
12224;SDS011;6175;50.956;11.064;2023-08-17T03:47:13;1.02;;;0.90;;
12224;SDS011;6175;50.956;11.064;2023-08-17T03:49:40;0.90;;;0.90;;
12224;SDS011;6175;50.956;11.064;2023-08-17T03:52:07;1.55;;;1.10;;
12224;SDS011;6175;50.956;11.064;2023-08-17T03:54:35;1.20;;;1.13;;
12224;SDS011;6175;50.956;11.064;2023-08-17T03:57:02;1.15;;;1.05;;
12224;SDS011;6175;50.956;11.064;2023-08-17T03:59:31;1.50;;;1.10;;
12224;SDS011;6175;50.956;11.064;2023-08-17T04:01:58;1.13;;;1.10;;
12224;SDS011;6175;50.956;11.064;2023-08-17T04:04:25;1.05;;;0.95;;
12224;SDS011;6175;50.956;11.064;2023-08-17T04:06:52;1.40;;;1.20;;
12224;SDS011;6175;50.956;11.064;2023-08-17T04:09:20;1.48;;;1.38;;
12224;SDS011;6175;50.956;11.064;2023-08-17T04:11:47;1.55;;;1.20;;
12224;SDS011;6175;50.956;11.064;2023-08-17T04:14:14;1.30;;;1.20;;
12224;SDS011;6175;50.956;11.064;2023-08-17T04:16:42;1.30;;;1.20;;
12224;SDS011;6175;50.956;11.064;2023-08-17T04:19:09;1.73;;;1.15;;
12224;SDS011;6175;50.956;11.064;2023-08-17T04:21:36;0.90;;;0.90;;
12224;SDS011;6175;50.956;11.064;2023-08-17T04:24:04;2.10;;;1.42;;
12224;SDS011;6175;50.956;11.064;2023-08-17T04:26:31;1.70;;;1.60;;
12224;SDS011;6175;50.956;11.064;2023-08-17T04:28:58;1.45;;;1.35;;
12224;SDS011;6175;50.956;11.064;2023-08-17T04:31:25;1.50;;;1.40;;
12224;SDS011;6175;50.956;11.064;2023-08-17T04:33:54;1.60;;;1.50;;
12224;SDS011;6175;50.956;11.064;2023-08-17T04:36:21;1.15;;;1.15;;
12224;SDS011;6175;50.956;11.064;2023-08-17T04:38:48;1.90;;;1.50;;
12224;SDS011;6175;50.956;11.064;2023-08-17T04:41:15;1.50;;;1.40;;
12224;SDS011;6175;50.956;11.064;2023-08-17T04:43:43;1.60;;;1.50;;
12224;SDS011;6175;50.956;11.064;2023-08-17T04:46:11;1.98;;;1.73;;
12224;SDS011;6175;50.956;11.064;2023-08-17T04:48:38;1.70;;;1.60;;
12224;SDS011;6175;50.956;11.064;2023-08-17T04:51:07;1.92;;;1.67;;
12224;SDS011;6175;50.956;11.064;2023-08-17T04:53:34;2.47;;;2.28;;
12224;SDS011;6175;50.956;11.064;2023-08-17T04:56:02;2.20;;;1.98;;
12224;SDS011;6175;50.956;11.064;2023-08-17T04:58:29;2.10;;;1.90;;
12224;SDS011;6175;50.956;11.064;2023-08-17T05:00:56;1.60;;;1.50;;
12224;SDS011;6175;50.956;11.064;2023-08-17T05:03:23;1.92;;;1.48;;
12224;SDS011;6175;50.956;11.064;2023-08-17T05:05:51;1.70;;;1.60;;
12224;SDS011;6175;50.956;11.064;2023-08-17T05:08:20;2.50;;;1.75;;
12224;SDS011;6175;50.956;11.064;2023-08-17T05:10:47;2.00;;;1.90;;
12224;SDS011;6175;50.956;11.064;2023-08-17T05:13:14;2.28;;;2.05;;
12224;SDS011;6175;50.956;11.064;2023-08-17T05:15:42;2.30;;;2.10;;
12224;SDS011;6175;50.956;11.064;2023-08-17T05:18:09;1.70;;;1.60;;
12224;SDS011;6175;50.956;11.064;2023-08-17T05:20:37;2.25;;;1.48;;
12224;SDS011;6175;50.956;11.064;2023-08-17T05:23:04;1.77;;;1.67;;
12224;SDS011;6175;50.956;11.064;2023-08-17T05:25:32;2.20;;;2.00;;
12224;SDS011;6175;50.956;11.064;2023-08-17T05:28:00;1.55;;;1.45;;
12224;SDS011;6175;50.956;11.064;2023-08-17T05:30:27;1.92;;;1.83;;
12224;SDS011;6175;50.956;11.064;2023-08-17T05:32:54;2.10;;;1.80;;
12224;SDS011;6175;50.956;11.064;2023-08-17T05:35:21;2.92;;;1.90;;
12224;SDS011;6175;50.956;11.064;2023-08-17T05:37:48;2.15;;;1.95;;
12224;SDS011;6175;50.956;11.064;2023-08-17T05:40:15;2.53;;;1.98;;
12224;SDS011;6175;50.956;11.064;2023-08-17T05:42:44;2.10;;;2.00;;
12224;SDS011;6175;50.956;11.064;2023-08-17T05:45:11;1.90;;;1.80;;
12224;SDS011;6175;50.956;11.064;2023-08-17T05:47:38;2.28;;;2.08;;
12224;SDS011;6175;50.956;11.064;2023-08-17T05:50:05;2.60;;;2.40;;
12224;SDS011;6175;50.956;11.064;2023-08-17T05:52:33;2.85;;;1.90;;
12224;SDS011;6175;50.956;11.064;2023-08-17T05:55:00;2.13;;;1.70;;
12224;SDS011;6175;50.956;11.064;2023-08-17T05:57:27;1.88;;;1.67;;
12224;SDS011;6175;50.956;11.064;2023-08-17T05:59:56;1.73;;;1.63;;
12224;SDS011;6175;50.956;11.064;2023-08-17T06:02:23;1.90;;;1.80;;
12224;SDS011;6175;50.956;11.064;2023-08-17T06:04:50;1.63;;;1.52;;
12224;SDS011;6175;50.956;11.064;2023-08-17T06:07:17;1.85;;;1.75;;
12224;SDS011;6175;50.956;11.064;2023-08-17T06:09:44;2.33;;;2.00;;
12224;SDS011;6175;50.956;11.064;2023-08-17T06:12:11;2.17;;;1.98;;
12224;SDS011;6175;50.956;11.064;2023-08-17T06:14:38;1.90;;;1.70;;
12224;SDS011;6175;50.956;11.064;2023-08-17T06:17:08;2.30;;;2.10;;
12224;SDS011;6175;50.956;11.064;2023-08-17T06:19:35;2.20;;;1.80;;
12224;SDS011;6175;50.956;11.064;2023-08-17T06:22:04;2.90;;;2.20;;
12224;SDS011;6175;50.956;11.064;2023-08-17T06:24:31;1.77;;;1.67;;
12224;SDS011;6175;50.956;11.064;2023-08-17T06:26:58;2.60;;;2.15;;
12224;SDS011;6175;50.956;11.064;2023-08-17T06:29:26;3.03;;;2.28;;
12224;SDS011;6175;50.956;11.064;2023-08-17T06:31:53;2.00;;;1.80;;
12224;SDS011;6175;50.956;11.064;2023-08-17T06:34:21;2.97;;;1.90;;
12224;SDS011;6175;50.956;11.064;2023-08-17T06:36:56;1.92;;;1.83;;
12224;SDS011;6175;50.956;11.064;2023-08-17T06:39:23;1.73;;;1.63;;
12224;SDS011;6175;50.956;11.064;2023-08-17T06:41:50;1.92;;;1.80;;
12224;SDS011;6175;50.956;11.064;2023-08-17T06:44:18;3.00;;;2.20;;
12224;SDS011;6175;50.956;11.064;2023-08-17T06:46:45;2.40;;;2.03;;
12224;SDS011;6175;50.956;11.064;2023-08-17T06:49:12;2.30;;;2.10;;
12224;SDS011;6175;50.956;11.064;2023-08-17T06:51:41;2.13;;;1.92;;
12224;SDS011;6175;50.956;11.064;2023-08-17T06:54:08;2.40;;;2.10;;
12224;SDS011;6175;50.956;11.064;2023-08-17T06:56:35;2.10;;;1.88;;
12224;SDS011;6175;50.956;11.064;2023-08-17T06:59:02;2.13;;;1.80;;
12224;SDS011;6175;50.956;11.064;2023-08-17T07:01:30;1.75;;;1.65;;
12224;SDS011;6175;50.956;11.064;2023-08-17T07:03:57;1.90;;;1.77;;
12224;SDS011;6175;50.956;11.064;2023-08-17T07:06:24;2.05;;;1.60;;
12224;SDS011;6175;50.956;11.064;2023-08-17T07:08:52;1.98;;;1.77;;
12224;SDS011;6175;50.956;11.064;2023-08-17T07:11:19;1.90;;;1.80;;
12224;SDS011;6175;50.956;11.064;2023-08-17T07:13:46;1.92;;;1.83;;
12224;SDS011;6175;50.956;11.064;2023-08-17T07:16:13;2.00;;;1.88;;
12224;SDS011;6175;50.956;11.064;2023-08-17T07:18:40;1.90;;;1.80;;
12224;SDS011;6175;50.956;11.064;2023-08-17T07:21:08;2.00;;;1.80;;
12224;SDS011;6175;50.956;11.064;2023-08-17T07:23:35;4.45;;;3.05;;
12224;SDS011;6175;50.956;11.064;2023-08-17T07:26:03;2.60;;;2.40;;
12224;SDS011;6175;50.956;11.064;2023-08-17T07:28:30;2.33;;;2.13;;
12224;SDS011;6175;50.956;11.064;2023-08-17T07:30:58;2.95;;;2.60;;
12224;SDS011;6175;50.956;11.064;2023-08-17T07:33:25;3.60;;;2.75;;
12224;SDS011;6175;50.956;11.064;2023-08-17T07:35:52;2.63;;;2.42;;
12224;SDS011;6175;50.956;11.064;2023-08-17T07:38:20;5.85;;;2.80;;
12224;SDS011;6175;50.956;11.064;2023-08-17T07:40:48;2.45;;;2.25;;
12224;SDS011;6175;50.956;11.064;2023-08-17T07:43:16;2.58;;;2.38;;
12224;SDS011;6175;50.956;11.064;2023-08-17T07:45:43;2.60;;;2.40;;
12224;SDS011;6175;50.956;11.064;2023-08-17T07:48:10;2.90;;;2.35;;
12224;SDS011;6175;50.956;11.064;2023-08-17T07:50:37;3.17;;;2.92;;
12224;SDS011;6175;50.956;11.064;2023-08-17T07:53:05;3.70;;;3.40;;
12224;SDS011;6175;50.956;11.064;2023-08-17T07:55:32;3.25;;;2.80;;
12224;SDS011;6175;50.956;11.064;2023-08-17T07:57:59;2.47;;;2.28;;
12224;SDS011;6175;50.956;11.064;2023-08-17T08:00:28;2.65;;;2.45;;
12224;SDS011;6175;50.956;11.064;2023-08-17T08:02:55;2.90;;;2.60;;
12224;SDS011;6175;50.956;11.064;2023-08-17T08:05:22;2.42;;;2.22;;
12224;SDS011;6175;50.956;11.064;2023-08-17T08:07:49;2.67;;;2.47;;
12224;SDS011;6175;50.956;11.064;2023-08-17T08:10:16;3.05;;;2.50;;
12224;SDS011;6175;50.956;11.064;2023-08-17T08:12:44;3.08;;;2.63;;
12224;SDS011;6175;50.956;11.064;2023-08-17T08:15:11;2.40;;;2.30;;
12224;SDS011;6175;50.956;11.064;2023-08-17T08:17:40;2.88;;;2.60;;
12224;SDS011;6175;50.956;11.064;2023-08-17T08:20:07;2.47;;;2.28;;
12224;SDS011;6175;50.956;11.064;2023-08-17T08:22:34;2.85;;;2.65;;
12224;SDS011;6175;50.956;11.064;2023-08-17T08:25:01;3.50;;;3.20;;
12224;SDS011;6175;50.956;11.064;2023-08-17T08:27:29;3.20;;;2.85;;
12224;SDS011;6175;50.956;11.064;2023-08-17T08:29:56;3.45;;;3.13;;
12224;SDS011;6175;50.956;11.064;2023-08-17T08:32:23;3.78;;;3.40;;
12224;SDS011;6175;50.956;11.064;2023-08-17T08:34:51;3.65;;;3.35;;
12224;SDS011;6175;50.956;11.064;2023-08-17T08:37:19;4.13;;;3.70;;
12224;SDS011;6175;50.956;11.064;2023-08-17T08:39:49;4.30;;;3.90;;
12224;SDS011;6175;50.956;11.064;2023-08-17T08:42:16;4.47;;;4.07;;
12224;SDS011;6175;50.956;11.064;2023-08-17T08:44:44;3.95;;;3.65;;
12224;SDS011;6175;50.956;11.064;2023-08-17T08:47:11;3.97;;;3.65;;
12224;SDS011;6175;50.956;11.064;2023-08-17T08:49:39;4.30;;;3.90;;
12224;SDS011;6175;50.956;11.064;2023-08-17T08:52:08;4.53;;;4.13;;
12224;SDS011;6175;50.956;11.064;2023-08-17T08:54:42;4.35;;;3.95;;
12224;SDS011;6175;50.956;11.064;2023-08-17T08:57:12;4.15;;;3.85;;
12224;SDS011;6175;50.956;11.064;2023-08-17T08:59:39;3.95;;;3.65;;
12224;SDS011;6175;50.956;11.064;2023-08-17T09:02:10;4.10;;;3.80;;
12224;SDS011;6175;50.956;11.064;2023-08-17T09:04:38;4.70;;;4.30;;
12224;SDS011;6175;50.956;11.064;2023-08-17T09:07:06;4.45;;;4.10;;
12224;SDS011;6175;50.956;11.064;2023-08-17T09:09:35;4.32;;;4.03;;
12224;SDS011;6175;50.956;11.064;2023-08-17T09:12:02;4.80;;;4.30;;
12224;SDS011;6175;50.956;11.064;2023-08-17T09:14:30;4.50;;;4.10;;
12224;SDS011;6175;50.956;11.064;2023-08-17T09:16:57;4.90;;;4.40;;
12224;SDS011;6175;50.956;11.064;2023-08-17T09:19:24;4.05;;;3.75;;
12224;SDS011;6175;50.956;11.064;2023-08-17T09:21:53;4.47;;;4.13;;
12224;SDS011;6175;50.956;11.064;2023-08-17T09:24:21;4.13;;;3.47;;
12224;SDS011;6175;50.956;11.064;2023-08-17T09:26:48;5.05;;;3.88;;
12224;SDS011;6175;50.956;11.064;2023-08-17T09:29:16;6.22;;;4.00;;
12224;SDS011;6175;50.956;11.064;2023-08-17T09:31:44;4.10;;;3.70;;
12224;SDS011;6175;50.956;11.064;2023-08-17T09:34:11;4.43;;;4.00;;
12224;SDS011;6175;50.956;11.064;2023-08-17T09:36:38;4.10;;;3.80;;
12224;SDS011;6175;50.956;11.064;2023-08-17T09:39:06;5.40;;;4.25;;
12224;SDS011;6175;50.956;11.064;2023-08-17T09:41:39;4.13;;;3.83;;
12224;SDS011;6175;50.956;11.064;2023-08-17T09:44:08;4.07;;;3.67;;
12224;SDS011;6175;50.956;11.064;2023-08-17T09:46:35;4.35;;;3.95;;
12224;SDS011;6175;50.956;11.064;2023-08-17T09:49:02;3.90;;;3.60;;
12224;SDS011;6175;50.956;11.064;2023-08-17T09:51:30;4.05;;;3.65;;
12224;SDS011;6175;50.956;11.064;2023-08-17T09:53:57;3.70;;;3.40;;
12224;SDS011;6175;50.956;11.064;2023-08-17T09:56:25;3.28;;;2.90;;
12224;SDS011;6175;50.956;11.064;2023-08-17T09:58:55;4.72;;;3.70;;
12224;SDS011;6175;50.956;11.064;2023-08-17T10:01:22;4.20;;;3.05;;
12224;SDS011;6175;50.956;11.064;2023-08-17T10:03:50;3.25;;;2.95;;
12224;SDS011;6175;50.956;11.064;2023-08-17T10:06:20;3.55;;;3.05;;
12224;SDS011;6175;50.956;11.064;2023-08-17T10:08:49;3.22;;;3.03;;
12224;SDS011;6175;50.956;11.064;2023-08-17T10:11:18;5.13;;;3.40;;
12224;SDS011;6175;50.956;11.064;2023-08-17T10:13:46;3.25;;;2.95;;
12224;SDS011;6175;50.956;11.064;2023-08-17T10:16:21;2.90;;;2.60;;
12224;SDS011;6175;50.956;11.064;2023-08-17T10:18:50;3.40;;;2.85;;
12224;SDS011;6175;50.956;11.064;2023-08-17T10:21:23;3.35;;;3.05;;
12224;SDS011;6175;50.956;11.064;2023-08-17T10:23:53;3.35;;;2.85;;
12224;SDS011;6175;50.956;11.064;2023-08-17T10:26:21;3.22;;;2.92;;
12224;SDS011;6175;50.956;11.064;2023-08-17T10:28:49;3.58;;;3.35;;
12224;SDS011;6175;50.956;11.064;2023-08-17T10:31:17;3.83;;;3.53;;
12224;SDS011;6175;50.956;11.064;2023-08-17T10:33:46;3.90;;;3.50;;
12224;SDS011;6175;50.956;11.064;2023-08-17T10:36:14;3.90;;;3.60;;
12224;SDS011;6175;50.956;11.064;2023-08-17T10:38:41;4.43;;;4.03;;
12224;SDS011;6175;50.956;11.064;2023-08-17T10:41:09;4.13;;;3.83;;
12224;SDS011;6175;50.956;11.064;2023-08-17T10:43:56;5.32;;;3.90;;
12224;SDS011;6175;50.956;11.064;2023-08-17T10:46:32;5.53;;;4.15;;
12224;SDS011;6175;50.956;11.064;2023-08-17T10:49:04;3.63;;;3.33;;
12224;SDS011;6175;50.956;11.064;2023-08-17T10:51:32;4.00;;;3.45;;
12224;SDS011;6175;50.956;11.064;2023-08-17T10:54:01;3.83;;;3.42;;
12224;SDS011;6175;50.956;11.064;2023-08-17T10:56:29;4.10;;;3.80;;
12224;SDS011;6175;50.956;11.064;2023-08-17T10:58:59;4.63;;;4.22;;
12224;SDS011;6175;50.956;11.064;2023-08-17T11:01:33;3.90;;;3.60;;
12224;SDS011;6175;50.956;11.064;2023-08-17T11:04:12;4.38;;;4.07;;
12224;SDS011;6175;50.956;11.064;2023-08-17T11:06:39;6.75;;;3.92;;
12224;SDS011;6175;50.956;11.064;2023-08-17T11:09:06;4.38;;;3.70;;
12224;SDS011;6175;50.956;11.064;2023-08-17T11:11:34;3.25;;;3.05;;
12224;SDS011;6175;50.956;11.064;2023-08-17T11:14:02;4.70;;;4.30;;
12224;SDS011;6175;50.956;11.064;2023-08-17T11:16:29;4.80;;;4.40;;
12224;SDS011;6175;50.956;11.064;2023-08-17T11:18:56;3.78;;;3.47;;
12224;SDS011;6175;50.956;11.064;2023-08-17T11:21:26;5.38;;;4.30;;
12224;SDS011;6175;50.956;11.064;2023-08-17T11:23:55;4.00;;;3.70;;
12224;SDS011;6175;50.956;11.064;2023-08-17T11:26:23;4.38;;;3.97;;
12224;SDS011;6175;50.956;11.064;2023-08-17T11:28:51;3.83;;;3.53;;
12224;SDS011;6175;50.956;11.064;2023-08-17T11:31:18;4.50;;;4.10;;
12224;SDS011;6175;50.956;11.064;2023-08-17T11:33:45;4.88;;;4.10;;
12224;SDS011;6175;50.956;11.064;2023-08-17T11:36:12;3.90;;;3.60;;
12224;SDS011;6175;50.956;11.064;2023-08-17T11:38:42;5.35;;;4.85;;
12224;SDS011;6175;50.956;11.064;2023-08-17T11:41:09;4.03;;;3.72;;
12224;SDS011;6175;50.956;11.064;2023-08-17T11:43:37;4.60;;;4.20;;
12224;SDS011;6175;50.956;11.064;2023-08-17T11:46:04;8.20;;;4.15;;
12224;SDS011;6175;50.956;11.064;2023-08-17T11:48:31;4.55;;;4.00;;
12224;SDS011;6175;50.956;11.064;2023-08-17T11:50:59;4.50;;;4.10;;
12224;SDS011;6175;50.956;11.064;2023-08-17T11:53:32;4.10;;;3.70;;
12224;SDS011;6175;50.956;11.064;2023-08-17T11:56:01;5.18;;;4.50;;
12224;SDS011;6175;50.956;11.064;2023-08-17T12:01:14;5.20;;;4.70;;
12224;SDS011;6175;50.956;11.064;2023-08-17T12:03:41;4.30;;;4.00;;
12224;SDS011;6175;50.956;11.064;2023-08-17T12:06:09;4.30;;;3.90;;
12224;SDS011;6175;50.956;11.064;2023-08-17T12:08:37;5.10;;;4.65;;
12224;SDS011;6175;50.956;11.064;2023-08-17T12:11:06;4.75;;;4.25;;
12224;SDS011;6175;50.956;11.064;2023-08-17T12:13:33;5.47;;;4.75;;
12224;SDS011;6175;50.956;11.064;2023-08-17T12:16:01;4.65;;;3.83;;
12224;SDS011;6175;50.956;11.064;2023-08-17T12:18:28;5.15;;;4.57;;
12224;SDS011;6175;50.956;11.064;2023-08-17T12:20:55;5.80;;;5.18;;
12224;SDS011;6175;50.956;11.064;2023-08-17T12:23:22;4.85;;;4.45;;
12224;SDS011;6175;50.956;11.064;2023-08-17T12:25:53;4.80;;;4.40;;
12224;SDS011;6175;50.956;11.064;2023-08-17T12:28:22;4.50;;;4.10;;
12224;SDS011;6175;50.956;11.064;2023-08-17T12:30:56;4.18;;;3.78;;
12224;SDS011;6175;50.956;11.064;2023-08-17T12:33:24;4.80;;;4.40;;
12224;SDS011;6175;50.956;11.064;2023-08-17T12:35:51;4.50;;;4.20;;
12224;SDS011;6175;50.956;11.064;2023-08-17T12:38:18;5.43;;;4.82;;
12224;SDS011;6175;50.956;11.064;2023-08-17T12:40:46;5.85;;;4.95;;
12224;SDS011;6175;50.956;11.064;2023-08-17T12:43:13;5.30;;;4.55;;
12224;SDS011;6175;50.956;11.064;2023-08-17T12:45:41;6.55;;;4.68;;
12224;SDS011;6175;50.956;11.064;2023-08-17T12:48:08;4.78;;;4.38;;
12224;SDS011;6175;50.956;11.064;2023-08-17T12:50:36;5.75;;;4.80;;
12224;SDS011;6175;50.956;11.064;2023-08-17T12:53:03;5.03;;;4.65;;
12224;SDS011;6175;50.956;11.064;2023-08-17T12:55:30;4.85;;;4.45;;
12224;SDS011;6175;50.956;11.064;2023-08-17T12:57:57;4.65;;;4.25;;
12224;SDS011;6175;50.956;11.064;2023-08-17T13:00:24;5.47;;;4.38;;
12224;SDS011;6175;50.956;11.064;2023-08-17T13:02:53;4.60;;;4.20;;
12224;SDS011;6175;50.956;11.064;2023-08-17T13:05:20;4.90;;;4.50;;
12224;SDS011;6175;50.956;11.064;2023-08-17T13:07:47;5.43;;;4.93;;
12224;SDS011;6175;50.956;11.064;2023-08-17T13:10:14;4.97;;;4.57;;
12224;SDS011;6175;50.956;11.064;2023-08-17T13:12:42;4.88;;;4.47;;
12224;SDS011;6175;50.956;11.064;2023-08-17T13:15:09;5.47;;;4.97;;
12224;SDS011;6175;50.956;11.064;2023-08-17T13:17:36;5.18;;;4.78;;
12224;SDS011;6175;50.956;11.064;2023-08-17T13:20:05;6.30;;;4.30;;
12224;SDS011;6175;50.956;11.064;2023-08-17T13:22:33;5.07;;;4.68;;
12224;SDS011;6175;50.956;11.064;2023-08-17T13:25:00;4.70;;;4.30;;
12224;SDS011;6175;50.956;11.064;2023-08-17T13:27:28;5.68;;;5.18;;
12224;SDS011;6175;50.956;11.064;2023-08-17T13:29:54;5.65;;;4.68;;
12224;SDS011;6175;50.956;11.064;2023-08-17T13:32:23;5.82;;;5.30;;
12224;SDS011;6175;50.956;11.064;2023-08-17T13:34:50;5.80;;;5.28;;
12224;SDS011;6175;50.956;11.064;2023-08-17T13:37:19;5.40;;;4.80;;
12224;SDS011;6175;50.956;11.064;2023-08-17T13:39:46;4.72;;;4.32;;
12224;SDS011;6175;50.956;11.064;2023-08-17T13:42:13;5.53;;;5.03;;
12224;SDS011;6175;50.956;11.064;2023-08-17T13:44:41;6.15;;;5.57;;
12224;SDS011;6175;50.956;11.064;2023-08-17T13:47:08;5.30;;;4.80;;
12224;SDS011;6175;50.956;11.064;2023-08-17T13:49:35;6.13;;;5.60;;
12224;SDS011;6175;50.956;11.064;2023-08-17T13:52:03;5.43;;;5.00;;
12224;SDS011;6175;50.956;11.064;2023-08-17T13:54:31;5.55;;;5.05;;
12224;SDS011;6175;50.956;11.064;2023-08-17T13:56:59;5.70;;;5.20;;
12224;SDS011;6175;50.956;11.064;2023-08-17T13:59:26;6.50;;;5.88;;
12224;SDS011;6175;50.956;11.064;2023-08-17T14:01:54;5.97;;;5.43;;
12224;SDS011;6175;50.956;11.064;2023-08-17T14:04:22;6.72;;;6.22;;
12224;SDS011;6175;50.956;11.064;2023-08-17T14:06:49;8.27;;;6.20;;
12224;SDS011;6175;50.956;11.064;2023-08-17T14:09:17;6.65;;;6.13;;
12224;SDS011;6175;50.956;11.064;2023-08-17T14:11:45;6.88;;;6.28;;
12224;SDS011;6175;50.956;11.064;2023-08-17T14:14:13;6.03;;;5.53;;
12224;SDS011;6175;50.956;11.064;2023-08-17T14:16:40;6.78;;;6.28;;
12224;SDS011;6175;50.956;11.064;2023-08-17T14:19:07;6.95;;;6.25;;
12224;SDS011;6175;50.956;11.064;2023-08-17T14:21:34;6.30;;;5.80;;
12224;SDS011;6175;50.956;11.064;2023-08-17T14:24:01;6.38;;;5.88;;
12224;SDS011;6175;50.956;11.064;2023-08-17T14:26:29;6.82;;;6.30;;
12224;SDS011;6175;50.956;11.064;2023-08-17T14:28:57;6.95;;;6.35;;
12224;SDS011;6175;50.956;11.064;2023-08-17T14:31:25;6.43;;;5.82;;
12224;SDS011;6175;50.956;11.064;2023-08-17T14:33:52;6.88;;;6.38;;
12224;SDS011;6175;50.956;11.064;2023-08-17T14:36:19;7.05;;;6.45;;
12224;SDS011;6175;50.956;11.064;2023-08-17T14:38:46;6.93;;;6.32;;
12224;SDS011;6175;50.956;11.064;2023-08-17T14:41:13;7.30;;;5.75;;
12224;SDS011;6175;50.956;11.064;2023-08-17T14:43:40;6.18;;;5.68;;
12224;SDS011;6175;50.956;11.064;2023-08-17T14:46:09;6.93;;;6.22;;
12224;SDS011;6175;50.956;11.064;2023-08-17T14:48:36;7.95;;;6.18;;
12224;SDS011;6175;50.956;11.064;2023-08-17T14:51:05;6.60;;;6.10;;
12224;SDS011;6175;50.956;11.064;2023-08-17T14:53:31;7.40;;;6.50;;